sensor_id;sensor_type;location;lat;lon;timestamp;temperature;humidity
26041;DHT22;13816;53.628;9.950;2022-08-21T00:01:21;15.60;99.90
26041;DHT22;13816;53.628;9.950;2022-08-21T00:03:48;15.60;99.90
26041;DHT22;13816;53.628;9.950;2022-08-21T00:06:14;15.50;99.90
26041;DHT22;13816;53.628;9.950;2022-08-21T00:08:40;15.60;99.90
26041;DHT22;13816;53.628;9.950;2022-08-21T00:11:07;15.50;99.90
26041;DHT22;13816;53.628;9.950;2022-08-21T00:13:33;15.50;99.90
26041;DHT22;13816;53.628;9.950;2022-08-21T00:15:59;15.40;99.90
26041;DHT22;13816;53.628;9.950;2022-08-21T00:18:26;15.40;99.90
26041;DHT22;13816;53.628;9.950;2022-08-21T00:20:52;15.30;99.90
26041;DHT22;13816;53.628;9.950;2022-08-21T00:23:18;15.40;99.90
26041;DHT22;13816;53.628;9.950;2022-08-21T00:25:44;15.30;99.90
26041;DHT22;13816;53.628;9.950;2022-08-21T00:28:11;15.40;99.90
26041;DHT22;13816;53.628;9.950;2022-08-21T00:30:38;15.30;99.90
26041;DHT22;13816;53.628;9.950;2022-08-21T00:33:05;15.20;99.90
26041;DHT22;13816;53.628;9.950;2022-08-21T00:35:34;15.30;99.90
26041;DHT22;13816;53.628;9.950;2022-08-21T00:38:00;15.20;99.90
26041;DHT22;13816;53.628;9.950;2022-08-21T00:40:31;15.20;99.90
26041;DHT22;13816;53.628;9.950;2022-08-21T00:42:57;15.30;99.90
26041;DHT22;13816;53.628;9.950;2022-08-21T00:45:23;15.30;99.90
26041;DHT22;13816;53.628;9.950;2022-08-21T00:47:51;15.20;99.90
26041;DHT22;13816;53.628;9.950;2022-08-21T00:50:17;15.20;99.90
26041;DHT22;13816;53.628;9.950;2022-08-21T00:52:45;15.20;99.90
26041;DHT22;13816;53.628;9.950;2022-08-21T00:55:29;15.20;99.90
26041;DHT22;13816;53.628;9.950;2022-08-21T00:58:02;15.10;99.90
26041;DHT22;13816;53.628;9.950;2022-08-21T01:00:32;15.20;99.90
26041;DHT22;13816;53.628;9.950;2022-08-21T01:03:01;15.10;99.90
26041;DHT22;13816;53.628;9.950;2022-08-21T01:05:30;15.00;99.90
26041;DHT22;13816;53.628;9.950;2022-08-21T01:07:56;15.00;99.90
26041;DHT22;13816;53.628;9.950;2022-08-21T01:10:25;15.00;99.90
26041;DHT22;13816;53.628;9.950;2022-08-21T01:12:52;15.00;99.90
26041;DHT22;13816;53.628;9.950;2022-08-21T01:15:22;14.90;99.90
26041;DHT22;13816;53.628;9.950;2022-08-21T01:17:49;14.90;99.90
26041;DHT22;13816;53.628;9.950;2022-08-21T01:20:16;14.90;99.90
26041;DHT22;13816;53.628;9.950;2022-08-21T01:22:42;14.90;99.90
26041;DHT22;13816;53.628;9.950;2022-08-21T01:25:10;14.90;99.90
26041;DHT22;13816;53.628;9.950;2022-08-21T01:27:36;14.90;99.90
26041;DHT22;13816;53.628;9.950;2022-08-21T01:30:14;14.90;99.90
26041;DHT22;13816;53.628;9.950;2022-08-21T01:32:41;14.90;99.90
26041;DHT22;13816;53.628;9.950;2022-08-21T01:35:08;14.90;99.90
26041;DHT22;13816;53.628;9.950;2022-08-21T01:37:34;14.80;99.90
26041;DHT22;13816;53.628;9.950;2022-08-21T01:40:32;14.90;99.90
26041;DHT22;13816;53.628;9.950;2022-08-21T01:43:14;14.80;99.90
26041;DHT22;13816;53.628;9.950;2022-08-21T01:45:39;14.80;99.90
26041;DHT22;13816;53.628;9.950;2022-08-21T01:48:05;14.70;99.90
26041;DHT22;13816;53.628;9.950;2022-08-21T01:50:31;14.70;99.90
26041;DHT22;13816;53.628;9.950;2022-08-21T01:52:56;14.70;99.90
26041;DHT22;13816;53.628;9.950;2022-08-21T01:55:34;14.70;99.90
26041;DHT22;13816;53.628;9.950;2022-08-21T01:58:00;14.70;99.90
26041;DHT22;13816;53.628;9.950;2022-08-21T02:00:26;14.60;99.90
26041;DHT22;13816;53.628;9.950;2022-08-21T02:02:52;14.60;99.90
26041;DHT22;13816;53.628;9.950;2022-08-21T02:05:18;14.60;99.90
26041;DHT22;13816;53.628;9.950;2022-08-21T02:07:50;14.50;99.90
26041;DHT22;13816;53.628;9.950;2022-08-21T02:10:21;14.50;99.90
26041;DHT22;13816;53.628;9.950;2022-08-21T02:12:47;14.50;99.90
26041;DHT22;13816;53.628;9.950;2022-08-21T02:15:13;14.40;99.90
26041;DHT22;13816;53.628;9.950;2022-08-21T02:17:46;14.40;99.90
26041;DHT22;13816;53.628;9.950;2022-08-21T02:20:17;14.50;99.90
26041;DHT22;13816;53.628;9.950;2022-08-21T02:22:43;14.40;99.90
26041;DHT22;13816;53.628;9.950;2022-08-21T02:25:09;14.40;99.90
26041;DHT22;13816;53.628;9.950;2022-08-21T02:27:43;14.40;99.90
26041;DHT22;13816;53.628;9.950;2022-08-21T02:30:16;14.40;99.90
26041;DHT22;13816;53.628;9.950;2022-08-21T02:32:42;14.40;99.90
26041;DHT22;13816;53.628;9.950;2022-08-21T02:35:09;14.50;99.90
26041;DHT22;13816;53.628;9.950;2022-08-21T02:37:51;14.40;99.90
26041;DHT22;13816;53.628;9.950;2022-08-21T02:40:19;14.40;99.90
26041;DHT22;13816;53.628;9.950;2022-08-21T02:42:45;14.40;99.90
26041;DHT22;13816;53.628;9.950;2022-08-21T02:45:13;14.40;99.90
26041;DHT22;13816;53.628;9.950;2022-08-21T02:48:03;14.40;99.90
26041;DHT22;13816;53.628;9.950;2022-08-21T02:50:32;14.40;99.90
26041;DHT22;13816;53.628;9.950;2022-08-21T02:52:59;14.40;99.90
26041;DHT22;13816;53.628;9.950;2022-08-21T02:55:29;14.20;99.90
26041;DHT22;13816;53.628;9.950;2022-08-21T02:57:56;14.30;99.90
26041;DHT22;13816;53.628;9.950;2022-08-21T03:00:23;14.20;99.90
26041;DHT22;13816;53.628;9.950;2022-08-21T03:02:50;14.20;99.90
26041;DHT22;13816;53.628;9.950;2022-08-21T03:05:17;14.20;99.90
26041;DHT22;13816;53.628;9.950;2022-08-21T03:07:44;14.20;99.90
26041;DHT22;13816;53.628;9.950;2022-08-21T03:10:12;14.20;99.90
26041;DHT22;13816;53.628;9.950;2022-08-21T03:12:38;14.20;99.90
26041;DHT22;13816;53.628;9.950;2022-08-21T03:15:06;14.20;99.90
26041;DHT22;13816;53.628;9.950;2022-08-21T03:17:33;14.20;99.90
26041;DHT22;13816;53.628;9.950;2022-08-21T03:19:59;14.20;99.90
26041;DHT22;13816;53.628;9.950;2022-08-21T03:22:25;14.30;99.90
26041;DHT22;13816;53.628;9.950;2022-08-21T03:24:51;14.20;99.90
26041;DHT22;13816;53.628;9.950;2022-08-21T03:27:17;14.20;99.90
26041;DHT22;13816;53.628;9.950;2022-08-21T03:29:43;14.10;99.90
26041;DHT22;13816;53.628;9.950;2022-08-21T03:32:09;14.10;99.90
26041;DHT22;13816;53.628;9.950;2022-08-21T03:34:36;14.10;99.90
26041;DHT22;13816;53.628;9.950;2022-08-21T03:37:03;14.10;99.90
26041;DHT22;13816;53.628;9.950;2022-08-21T03:39:29;14.10;99.90
26041;DHT22;13816;53.628;9.950;2022-08-21T03:41:55;14.10;99.90
26041;DHT22;13816;53.628;9.950;2022-08-21T03:44:20;14.10;99.90
26041;DHT22;13816;53.628;9.950;2022-08-21T03:46:46;14.00;99.90
26041;DHT22;13816;53.628;9.950;2022-08-21T03:49:12;14.10;99.90
26041;DHT22;13816;53.628;9.950;2022-08-21T03:51:38;14.10;99.90
26041;DHT22;13816;53.628;9.950;2022-08-21T03:54:04;14.10;99.90
26041;DHT22;13816;53.628;9.950;2022-08-21T03:56:30;14.10;99.90
26041;DHT22;13816;53.628;9.950;2022-08-21T03:58:56;14.10;99.90
26041;DHT22;13816;53.628;9.950;2022-08-21T04:01:22;14.00;99.90
26041;DHT22;13816;53.628;9.950;2022-08-21T04:03:48;14.10;99.90
26041;DHT22;13816;53.628;9.950;2022-08-21T04:06:13;14.00;99.90
26041;DHT22;13816;53.628;9.950;2022-08-21T04:08:39;14.10;99.90
26041;DHT22;13816;53.628;9.950;2022-08-21T04:11:08;14.00;99.90
26041;DHT22;13816;53.628;9.950;2022-08-21T04:13:36;14.00;99.90
26041;DHT22;13816;53.628;9.950;2022-08-21T04:16:02;14.00;99.90
26041;DHT22;13816;53.628;9.950;2022-08-21T04:18:28;14.00;99.90
26041;DHT22;13816;53.628;9.950;2022-08-21T04:20:54;14.00;99.90
26041;DHT22;13816;53.628;9.950;2022-08-21T04:23:22;14.10;99.90
26041;DHT22;13816;53.628;9.950;2022-08-21T04:25:48;14.10;99.90
26041;DHT22;13816;53.628;9.950;2022-08-21T04:28:13;14.10;99.90
26041;DHT22;13816;53.628;9.950;2022-08-21T04:30:39;14.20;99.90
26041;DHT22;13816;53.628;9.950;2022-08-21T04:33:05;14.20;99.90
26041;DHT22;13816;53.628;9.950;2022-08-21T04:35:31;14.30;99.90
26041;DHT22;13816;53.628;9.950;2022-08-21T04:37:57;14.30;99.90
26041;DHT22;13816;53.628;9.950;2022-08-21T04:40:25;14.40;99.90
26041;DHT22;13816;53.628;9.950;2022-08-21T04:43:01;14.40;99.90
26041;DHT22;13816;53.628;9.950;2022-08-21T04:45:30;14.40;99.90
26041;DHT22;13816;53.628;9.950;2022-08-21T04:47:58;14.50;99.90
26041;DHT22;13816;53.628;9.950;2022-08-21T04:50:45;14.50;99.90
26041;DHT22;13816;53.628;9.950;2022-08-21T04:54:06;14.60;99.90
26041;DHT22;13816;53.628;9.950;2022-08-21T04:56:09;14.50;99.90
26041;DHT22;13816;53.628;9.950;2022-08-21T04:58:38;14.50;99.90
26041;DHT22;13816;53.628;9.950;2022-08-21T05:01:07;14.60;99.90
26041;DHT22;13816;53.628;9.950;2022-08-21T05:03:35;14.60;99.90
26041;DHT22;13816;53.628;9.950;2022-08-21T05:06:08;14.60;99.90
26041;DHT22;13816;53.628;9.950;2022-08-21T05:08:37;14.70;99.90
26041;DHT22;13816;53.628;9.950;2022-08-21T05:11:04;14.60;99.90
26041;DHT22;13816;53.628;9.950;2022-08-21T05:13:30;14.70;99.90
26041;DHT22;13816;53.628;9.950;2022-08-21T05:15:56;14.80;99.90
26041;DHT22;13816;53.628;9.950;2022-08-21T05:18:22;14.80;99.90
26041;DHT22;13816;53.628;9.950;2022-08-21T05:20:47;14.90;99.90
26041;DHT22;13816;53.628;9.950;2022-08-21T05:23:14;14.90;99.90
26041;DHT22;13816;53.628;9.950;2022-08-21T05:25:41;15.00;99.90
26041;DHT22;13816;53.628;9.950;2022-08-21T05:28:06;15.00;99.90
26041;DHT22;13816;53.628;9.950;2022-08-21T05:30:33;15.10;99.90
26041;DHT22;13816;53.628;9.950;2022-08-21T05:33:01;15.10;99.90
26041;DHT22;13816;53.628;9.950;2022-08-21T05:35:28;15.20;99.90
26041;DHT22;13816;53.628;9.950;2022-08-21T05:37:54;15.30;99.90
26041;DHT22;13816;53.628;9.950;2022-08-21T05:40:21;15.40;99.90
26041;DHT22;13816;53.628;9.950;2022-08-21T05:42:46;15.40;99.90
26041;DHT22;13816;53.628;9.950;2022-08-21T05:45:12;15.50;99.90
26041;DHT22;13816;53.628;9.950;2022-08-21T05:47:38;15.50;99.90
26041;DHT22;13816;53.628;9.950;2022-08-21T05:50:05;15.60;99.90
26041;DHT22;13816;53.628;9.950;2022-08-21T05:52:31;15.60;99.90
26041;DHT22;13816;53.628;9.950;2022-08-21T05:54:57;15.70;99.90
26041;DHT22;13816;53.628;9.950;2022-08-21T05:57:23;15.80;99.90
26041;DHT22;13816;53.628;9.950;2022-08-21T05:59:49;15.80;99.90
26041;DHT22;13816;53.628;9.950;2022-08-21T06:02:17;15.90;99.90
26041;DHT22;13816;53.628;9.950;2022-08-21T06:04:43;15.90;99.90
26041;DHT22;13816;53.628;9.950;2022-08-21T06:07:09;16.00;99.90
26041;DHT22;13816;53.628;9.950;2022-08-21T06:09:35;16.00;99.90
26041;DHT22;13816;53.628;9.950;2022-08-21T06:12:06;16.10;99.90
26041;DHT22;13816;53.628;9.950;2022-08-21T06:14:34;16.20;99.90
26041;DHT22;13816;53.628;9.950;2022-08-21T06:17:07;16.30;99.90
26041;DHT22;13816;53.628;9.950;2022-08-21T06:19:33;16.40;99.90
26041;DHT22;13816;53.628;9.950;2022-08-21T06:21:59;16.50;99.90
26041;DHT22;13816;53.628;9.950;2022-08-21T06:24:26;16.60;99.90
26041;DHT22;13816;53.628;9.950;2022-08-21T06:26:52;16.70;99.90
26041;DHT22;13816;53.628;9.950;2022-08-21T06:29:18;16.70;99.90
26041;DHT22;13816;53.628;9.950;2022-08-21T06:31:46;16.80;99.90
26041;DHT22;13816;53.628;9.950;2022-08-21T06:34:12;16.90;99.90
26041;DHT22;13816;53.628;9.950;2022-08-21T06:36:38;17.00;99.90
26041;DHT22;13816;53.628;9.950;2022-08-21T06:39:04;17.10;99.90
26041;DHT22;13816;53.628;9.950;2022-08-21T06:41:30;17.10;99.90
26041;DHT22;13816;53.628;9.950;2022-08-21T06:43:56;17.30;99.90
26041;DHT22;13816;53.628;9.950;2022-08-21T06:46:28;17.30;99.90
26041;DHT22;13816;53.628;9.950;2022-08-21T06:48:54;17.40;99.90
26041;DHT22;13816;53.628;9.950;2022-08-21T06:51:19;17.50;99.90
26041;DHT22;13816;53.628;9.950;2022-08-21T06:53:45;17.50;99.90
26041;DHT22;13816;53.628;9.950;2022-08-21T06:56:11;17.60;99.90
26041;DHT22;13816;53.628;9.950;2022-08-21T06:58:37;17.60;99.90
26041;DHT22;13816;53.628;9.950;2022-08-21T07:01:03;17.80;99.90
26041;DHT22;13816;53.628;9.950;2022-08-21T07:03:36;17.90;99.90
26041;DHT22;13816;53.628;9.950;2022-08-21T18:09:04;18.10;99.90
26041;DHT22;13816;53.628;9.950;2022-08-21T18:11:31;23.60;95.50
